createdAt,value
2022-08-10T00:00:54.461Z,1.50
2022-08-10T00:01:54.658Z,1.50
2022-08-10T00:02:54.386Z,1.40
2022-08-10T00:03:54.352Z,1.60
2022-08-10T00:04:54.331Z,1.80
2022-08-10T00:05:54.291Z,1.60
2022-08-10T00:06:54.285Z,1.50
2022-08-10T00:07:54.205Z,1.60
2022-08-10T00:08:54.170Z,1.70
2022-08-10T00:09:54.134Z,1.60
2022-08-10T00:10:54.097Z,1.60
2022-08-10T00:11:54.072Z,1.60
2022-08-10T00:12:55.238Z,1.40
2022-08-10T00:13:53.987Z,1.70
2022-08-10T00:14:53.955Z,1.50
2022-08-10T00:15:55.355Z,1.70
2022-08-10T00:16:53.885Z,1.60
2022-08-10T00:17:53.851Z,1.30
2022-08-10T00:18:53.808Z,1.50
2022-08-10T00:20:03.137Z,1.60
2022-08-10T00:20:53.736Z,1.50
2022-08-10T00:21:53.699Z,1.70
2022-08-10T00:22:57.802Z,1.60
2022-08-10T00:23:53.633Z,1.70
2022-08-10T00:24:53.620Z,1.60
2022-08-10T00:25:53.551Z,1.50
2022-08-10T00:27:58.542Z,1.60
2022-08-10T00:28:03.632Z,1.50
2022-08-10T00:28:53.457Z,1.50
2022-08-10T00:29:53.433Z,1.60
2022-08-10T00:30:53.396Z,1.60
2022-08-10T00:31:57.955Z,1.40
2022-08-10T00:32:53.299Z,1.50
2022-08-10T00:33:53.264Z,1.40
2022-08-10T00:34:53.239Z,1.60
2022-08-10T00:35:53.209Z,1.60
2022-08-10T00:36:53.161Z,1.50
2022-08-10T00:37:56.422Z,1.70
2022-08-10T00:38:53.084Z,1.60
2022-08-10T00:39:53.098Z,1.50
2022-08-10T00:40:53.021Z,1.70
2022-08-10T00:42:02.289Z,1.50
2022-08-10T00:42:52.938Z,1.50
2022-08-10T00:43:52.899Z,1.60
2022-08-10T00:44:52.864Z,1.40
2022-08-10T00:45:59.530Z,1.50
2022-08-10T00:46:52.803Z,1.60
2022-08-10T00:47:52.757Z,1.60
2022-08-10T00:49:00.739Z,1.60
2022-08-10T00:49:52.683Z,1.70
2022-08-10T00:50:52.646Z,1.50
2022-08-10T00:51:52.615Z,1.60
2022-08-10T00:52:52.576Z,1.30
2022-08-10T00:53:52.538Z,1.50
2022-08-10T00:54:52.508Z,1.80
2022-08-10T00:56:35.234Z,1.70
2022-08-10T00:57:18.029Z,1.60
2022-08-10T00:57:54.803Z,1.50
2022-08-10T00:58:52.354Z,1.50
2022-08-10T00:59:57.649Z,1.70
2022-08-10T01:00:52.291Z,1.70
2022-08-10T01:02:08.540Z,1.80
2022-08-10T01:02:52.406Z,1.80
2022-08-10T01:04:36.485Z,1.50
2022-08-10T01:05:00.341Z,1.50
2022-08-10T01:05:52.101Z,1.70
2022-08-10T01:06:52.077Z,1.50
2022-08-10T01:07:52.031Z,1.60
2022-08-10T01:08:51.988Z,1.60
2022-08-10T01:09:57.224Z,1.80
2022-08-10T01:10:51.922Z,1.60
2022-08-10T01:12:39.701Z,1.70
2022-08-10T01:12:52.284Z,1.70
2022-08-10T01:13:51.817Z,1.60
2022-08-10T01:14:51.774Z,1.70
2022-08-10T01:15:51.736Z,1.70
2022-08-10T01:16:51.698Z,1.60
2022-08-10T01:17:51.715Z,1.50
2022-08-10T01:18:51.624Z,1.50
2022-08-10T01:19:51.604Z,1.70
2022-08-10T01:20:51.554Z,1.80
2022-08-10T01:21:57.044Z,1.60
2022-08-10T01:22:51.479Z,1.60
2022-08-10T01:23:51.442Z,1.50
2022-08-10T01:24:51.420Z,1.70
2022-08-10T01:26:11.839Z,1.50
2022-08-10T01:26:51.336Z,1.50
2022-08-10T01:27:51.305Z,1.70
2022-08-10T01:28:51.264Z,1.90
2022-08-10T01:29:51.232Z,1.60
2022-08-10T01:30:51.215Z,1.70
2022-08-10T01:31:51.150Z,1.60
2022-08-10T01:32:51.115Z,1.60
2022-08-10T01:33:58.068Z,1.60
2022-08-10T01:34:51.047Z,1.70
2022-08-10T01:35:51.004Z,1.80
2022-08-10T01:36:50.982Z,1.70
2022-08-10T01:37:51.870Z,1.50
2022-08-10T01:38:50.892Z,1.80
2022-08-10T01:39:50.914Z,1.70
2022-08-10T01:40:50.827Z,1.40
2022-08-10T01:41:50.799Z,1.70
2022-08-10T01:42:50.748Z,1.80
2022-08-10T01:43:50.711Z,1.60
2022-08-10T01:44:50.675Z,1.70
2022-08-10T01:45:50.644Z,1.80
2022-08-10T01:46:53.028Z,1.80
2022-08-10T01:47:50.580Z,1.70
2022-08-10T01:48:50.529Z,1.70
2022-08-10T01:49:50.497Z,1.60
2022-08-10T01:50:58.908Z,1.60
2022-08-10T01:51:50.423Z,1.70
2022-08-10T01:52:50.407Z,1.70
2022-08-10T01:53:50.352Z,1.80
2022-08-10T01:54:50.308Z,1.80
2022-08-10T01:55:50.271Z,1.80
2022-08-10T01:56:50.236Z,1.50
2022-08-10T01:57:50.202Z,1.80
2022-08-10T01:58:50.171Z,1.60
2022-08-10T01:59:58.603Z,1.70
2022-08-10T02:00:50.153Z,1.80
2022-08-10T02:01:50.051Z,1.70
2022-08-10T02:02:50.013Z,1.80
2022-08-10T02:04:03.786Z,1.60
2022-08-10T02:04:49.958Z,1.70
2022-08-10T02:05:49.906Z,1.80
2022-08-10T02:06:49.870Z,1.70
2022-08-10T02:07:49.831Z,1.90
2022-08-10T02:08:49.794Z,1.80
2022-08-10T02:09:49.756Z,1.80
2022-08-10T02:10:49.730Z,1.80
2022-08-10T02:12:05.454Z,1.80
2022-08-10T02:12:49.647Z,1.70
2022-08-10T02:13:49.611Z,1.70
2022-08-10T02:14:49.579Z,1.70
2022-08-10T02:16:01.940Z,1.60
2022-08-10T02:16:49.507Z,1.70
2022-08-10T02:17:59.259Z,1.70
2022-08-10T02:18:49.425Z,1.80
2022-08-10T02:19:49.390Z,1.90
2022-08-10T02:20:49.361Z,1.70
2022-08-10T02:22:36.770Z,1.70
2022-08-10T02:22:49.491Z,1.90
2022-08-10T02:23:59.356Z,2.00
2022-08-10T02:24:49.206Z,1.70
2022-08-10T02:25:49.169Z,1.60
2022-08-10T02:26:49.130Z,1.80
2022-08-10T02:27:49.102Z,1.80
2022-08-10T02:28:49.082Z,1.80
2022-08-10T02:29:49.331Z,1.90
2022-08-10T02:30:48.985Z,1.70
2022-08-10T02:31:49.560Z,1.90
2022-08-10T02:32:52.945Z,1.60
2022-08-10T02:33:57.828Z,1.90
2022-08-10T02:34:48.852Z,1.90
2022-08-10T02:35:55.485Z,1.70
2022-08-10T02:36:48.766Z,1.90
2022-08-10T02:37:58.165Z,1.70
2022-08-10T02:38:58.326Z,1.80
2022-08-10T02:39:48.654Z,1.70
2022-08-10T02:42:17.991Z,1.90
2022-08-10T02:42:18.118Z,2.00
2022-08-10T02:45:19.854Z,2.00
2022-08-10T02:45:24.327Z,1.90
2022-08-10T02:45:27.428Z,1.80
2022-08-10T02:45:48.430Z,1.90
2022-08-10T02:46:48.418Z,2.00
2022-08-10T02:47:52.282Z,1.90
2022-08-10T02:48:48.320Z,1.90
2022-08-10T02:49:48.282Z,1.80
2022-08-10T02:50:48.243Z,1.80
2022-08-10T02:52:06.781Z,2.00
2022-08-10T02:52:48.179Z,1.90
2022-08-10T02:53:54.460Z,1.80
2022-08-10T02:54:48.095Z,1.90
2022-08-10T02:55:48.058Z,2.00
2022-08-10T02:56:48.018Z,1.90
2022-08-10T02:58:16.720Z,2.00
2022-08-10T02:58:47.955Z,2.10
2022-08-10T02:59:47.908Z,1.90
2022-08-10T03:00:47.944Z,2.00
2022-08-10T03:01:47.836Z,2.00
2022-08-10T03:02:47.796Z,2.10
2022-08-10T03:03:47.763Z,2.00
2022-08-10T03:04:56.097Z,1.90
2022-08-10T03:05:47.688Z,2.00
2022-08-10T03:06:47.645Z,2.10
2022-08-10T03:07:47.607Z,2.00
2022-08-10T03:08:47.572Z,2.10
2022-08-10T03:09:47.547Z,2.00
2022-08-10T03:10:47.580Z,2.00
2022-08-10T03:12:36.209Z,2.00
2022-08-10T03:12:47.604Z,2.20
2022-08-10T03:13:52.454Z,2.00
2022-08-10T03:14:47.348Z,1.90
2022-08-10T03:15:47.309Z,2.20
2022-08-10T03:16:47.288Z,2.20
2022-08-10T03:17:57.579Z,2.10
2022-08-10T03:18:47.196Z,2.10
2022-08-10T03:20:33.702Z,2.10
2022-08-10T03:20:47.121Z,2.20
2022-08-10T03:21:47.083Z,2.00
2022-08-10T03:22:47.058Z,2.10
2022-08-10T03:23:47.007Z,2.00
2022-08-10T03:24:46.984Z,2.10
2022-08-10T03:25:53.898Z,2.30
2022-08-10T03:26:46.894Z,2.20
2022-08-10T03:27:46.861Z,2.20
2022-08-10T03:28:46.856Z,2.20
2022-08-10T03:30:29.697Z,1.90
2022-08-10T03:30:46.744Z,2.20
2022-08-10T03:31:46.707Z,2.30
2022-08-10T03:32:46.680Z,2.20
2022-08-10T03:33:46.641Z,2.10
2022-08-10T03:34:46.594Z,2.30
2022-08-10T03:36:43.118Z,2.10
2022-08-10T03:36:46.517Z,2.10
2022-08-10T03:37:46.481Z,2.30
2022-08-10T03:38:46.444Z,2.30
2022-08-10T03:39:46.494Z,2.30
2022-08-10T03:40:46.820Z,2.10
2022-08-10T03:41:47.777Z,2.10
2022-08-10T03:42:46.289Z,2.10
2022-08-10T03:43:46.257Z,2.10
2022-08-10T03:44:50.252Z,2.10
2022-08-10T03:45:55.676Z,2.20
2022-08-10T03:46:46.139Z,2.40
2022-08-10T03:47:46.102Z,2.00
2022-08-10T03:48:49.608Z,2.40
2022-08-10T03:49:46.027Z,2.40
2022-08-10T03:50:51.903Z,2.40
2022-08-10T03:51:45.959Z,2.40
2022-08-10T03:52:45.912Z,2.30
2022-08-10T03:54:04.974Z,2.20
2022-08-10T03:54:45.837Z,2.30
2022-08-10T03:56:29.414Z,2.40
2022-08-10T03:56:45.771Z,2.30
2022-08-10T03:57:49.579Z,2.30
2022-08-10T03:58:45.683Z,2.30
2022-08-10T03:59:45.651Z,2.20
2022-08-10T04:00:45.626Z,2.20
2022-08-10T04:02:45.312Z,2.10
2022-08-10T04:02:48.385Z,2.20
2022-08-10T04:03:45.497Z,2.30
2022-08-10T04:04:45.457Z,2.40
2022-08-10T04:05:45.420Z,2.40
2022-08-10T04:06:45.396Z,2.40
2022-08-10T04:07:45.345Z,2.40
2022-08-10T04:08:45.306Z,2.50
2022-08-10T04:09:55.731Z,2.40
2022-08-10T04:10:45.230Z,2.30
2022-08-10T04:11:45.191Z,2.50
2022-08-10T04:12:45.163Z,2.40
2022-08-10T04:13:45.115Z,2.60
2022-08-10T04:14:49.329Z,2.30
2022-08-10T04:15:45.040Z,2.20
2022-08-10T04:16:44.999Z,2.60
2022-08-10T04:17:57.081Z,2.70
2022-08-10T04:18:44.940Z,2.80
2022-08-10T04:19:44.892Z,2.40
2022-08-10T04:20:44.854Z,2.70
2022-08-10T04:21:44.811Z,2.80
2022-08-10T04:22:44.798Z,2.80
2022-08-10T04:23:44.734Z,2.60
2022-08-10T04:24:44.706Z,2.70
2022-08-10T04:25:44.658Z,2.50
2022-08-10T04:26:44.621Z,2.50
2022-08-10T04:27:44.585Z,2.60
2022-08-10T04:28:44.545Z,2.40
2022-08-10T04:29:44.507Z,2.30
2022-08-10T04:30:44.483Z,2.60
2022-08-10T04:31:44.434Z,2.70
2022-08-10T04:32:44.392Z,2.80
2022-08-10T04:33:44.356Z,2.70
2022-08-10T04:34:44.324Z,2.50
2022-08-10T04:35:44.278Z,2.80
2022-08-10T04:36:44.250Z,3.00
2022-08-10T04:37:47.615Z,2.60
2022-08-10T04:38:44.177Z,2.80
2022-08-10T04:39:44.211Z,2.90
2022-08-10T04:40:44.089Z,2.80
2022-08-10T04:41:47.302Z,2.40
2022-08-10T04:42:44.012Z,2.60
2022-08-10T04:43:44.004Z,3.20
2022-08-10T04:44:43.940Z,4.00
2022-08-10T04:45:49.518Z,5.60
2022-08-10T04:46:57.895Z,4.60
2022-08-10T04:48:00.636Z,3.00
2022-08-10T04:49:01.249Z,3.70
2022-08-10T04:49:55.135Z,2.50
2022-08-10T04:50:43.709Z,4.40
2022-08-10T04:51:43.671Z,4.20
2022-08-10T04:52:43.636Z,2.90
2022-08-10T04:54:05.494Z,3.30
2022-08-10T04:54:43.559Z,3.00
2022-08-10T04:55:43.535Z,3.60
2022-08-10T04:56:43.492Z,2.90
2022-08-10T04:57:43.444Z,3.90
2022-08-10T04:58:43.407Z,3.10
2022-08-10T04:59:43.370Z,3.50
2022-08-10T05:00:43.395Z,4.40
2022-08-10T05:02:22.170Z,2.90
2022-08-10T05:02:43.405Z,3.30
2022-08-10T05:04:34.659Z,3.10
2022-08-10T05:04:43.192Z,3.10
2022-08-10T05:05:43.141Z,2.80
2022-08-10T05:06:43.104Z,3.10
2022-08-10T05:07:51.463Z,3.70
2022-08-10T05:08:43.039Z,3.20
2022-08-10T05:10:04.835Z,2.80
2022-08-10T05:10:42.953Z,2.70
2022-08-10T05:11:42.915Z,2.90
2022-08-10T05:12:42.878Z,3.40
2022-08-10T05:13:42.851Z,2.80
2022-08-10T05:14:42.802Z,3.40
2022-08-10T05:15:42.766Z,2.70
2022-08-10T05:16:42.732Z,2.80
2022-08-10T05:18:03.237Z,2.40
2022-08-10T05:18:42.655Z,2.70
2022-08-10T05:20:04.361Z,2.90
2022-08-10T05:20:42.590Z,2.50
2022-08-10T05:22:03.396Z,2.40
2022-08-10T05:22:42.505Z,2.80
2022-08-10T05:23:42.469Z,2.50
2022-08-10T05:24:42.438Z,3.00
2022-08-10T05:25:42.403Z,2.60
2022-08-10T05:27:00.466Z,2.70
2022-08-10T05:27:42.334Z,2.50
2022-08-10T05:28:42.288Z,2.40
2022-08-10T05:29:42.250Z,2.70
2022-08-10T05:30:42.216Z,2.50
2022-08-10T05:31:42.181Z,2.60
2022-08-10T05:32:58.176Z,2.60
2022-08-10T05:33:42.273Z,2.40
2022-08-10T05:34:42.071Z,2.30
2022-08-10T05:35:56.235Z,2.40
2022-08-10T05:36:42.003Z,2.30
2022-08-10T05:38:09.951Z,2.40
2022-08-10T05:38:41.930Z,2.40
2022-08-10T05:39:41.961Z,2.40
2022-08-10T05:40:46.101Z,2.40
2022-08-10T05:41:46.049Z,2.40
2022-08-10T05:42:41.796Z,2.50
2022-08-10T05:43:41.753Z,2.40
2022-08-10T05:44:41.719Z,2.30
2022-08-10T05:46:19.210Z,2.50
2022-08-10T05:46:41.663Z,2.80
2022-08-10T05:48:57.047Z,2.90
2022-08-10T05:48:57.176Z,3.20
2022-08-10T05:49:41.547Z,3.20
2022-08-10T05:50:41.514Z,3.10
2022-08-10T05:51:41.489Z,3.40
2022-08-10T05:52:41.443Z,3.20
2022-08-10T05:54:02.336Z,2.90
2022-08-10T05:54:41.376Z,2.90
2022-08-10T05:55:41.344Z,2.70
2022-08-10T05:56:56.746Z,2.90
2022-08-10T05:57:41.282Z,2.60
2022-08-10T05:58:41.255Z,2.50
2022-08-10T06:00:12.613Z,2.40
2022-08-10T06:00:49.717Z,2.70
2022-08-10T06:01:41.232Z,2.70
2022-08-10T06:02:41.441Z,2.40
2022-08-10T06:03:41.071Z,2.40
2022-08-10T06:04:41.039Z,2.60
2022-08-10T06:05:41.006Z,2.30
2022-08-10T06:06:40.974Z,2.40
2022-08-10T06:07:40.988Z,2.20
2022-08-10T06:08:40.905Z,2.40
2022-08-10T06:09:58.943Z,2.20
2022-08-10T06:10:50.858Z,2.40
2022-08-10T06:12:26.488Z,2.40
2022-08-10T06:12:54.036Z,2.80
2022-08-10T06:14:13.186Z,2.60
2022-08-10T06:14:40.709Z,2.30
2022-08-10T06:15:50.855Z,2.50
2022-08-10T06:16:40.640Z,2.50
2022-08-10T06:17:40.611Z,2.30
2022-08-10T06:18:40.586Z,2.30
2022-08-10T06:19:40.539Z,2.30
2022-08-10T06:20:40.507Z,2.20
2022-08-10T06:21:40.474Z,2.30
2022-08-10T06:22:40.464Z,2.40
2022-08-10T06:23:40.410Z,2.50
2022-08-10T06:24:51.165Z,2.40
2022-08-10T06:26:09.821Z,2.30
2022-08-10T06:26:40.310Z,2.40
2022-08-10T06:27:40.280Z,2.20
2022-08-10T06:28:40.257Z,2.50
2022-08-10T06:29:40.208Z,2.60
2022-08-10T06:30:40.186Z,2.40
2022-08-10T06:31:49.008Z,2.40
2022-08-10T06:32:40.116Z,2.60
2022-08-10T06:33:40.085Z,2.40
2022-08-10T06:34:40.063Z,2.40
2022-08-10T06:35:40.025Z,2.30
2022-08-10T06:36:39.984Z,2.30
2022-08-10T06:37:39.951Z,2.20
2022-08-10T06:38:39.919Z,2.10
2022-08-10T06:39:39.958Z,2.30
2022-08-10T06:40:39.869Z,2.30
2022-08-10T06:42:14.377Z,2.40
2022-08-10T06:42:39.789Z,2.40
2022-08-10T06:43:39.756Z,2.30
2022-08-10T06:44:39.728Z,2.40
2022-08-10T06:45:39.690Z,2.20
2022-08-10T06:46:40.823Z,2.10
2022-08-10T06:47:39.626Z,2.30
2022-08-10T06:48:39.604Z,2.30
2022-08-10T06:49:39.561Z,2.30
2022-08-10T06:50:56.193Z,2.40
2022-08-10T06:51:39.497Z,2.50
2022-08-10T06:52:39.470Z,2.40
2022-08-10T06:53:53.913Z,2.10
2022-08-10T06:54:39.404Z,2.00
2022-08-10T06:55:49.722Z,2.20
2022-08-10T06:56:46.867Z,2.20
2022-08-10T06:57:39.306Z,2.10
2022-08-10T06:58:39.296Z,2.30
2022-08-10T06:59:39.244Z,2.30
2022-08-10T07:00:39.281Z,2.30
2022-08-10T07:01:39.178Z,2.20
2022-08-10T07:02:39.148Z,2.00
2022-08-10T07:03:39.118Z,2.10
2022-08-10T07:04:39.095Z,2.10
2022-08-10T07:05:39.054Z,2.10
2022-08-10T07:06:39.023Z,2.30
2022-08-10T07:07:38.985Z,2.40
2022-08-10T07:08:38.955Z,2.60
2022-08-10T07:09:38.932Z,2.10
2022-08-10T07:10:45.652Z,2.10
2022-08-10T07:11:38.860Z,2.10
2022-08-10T07:12:38.827Z,2.20
2022-08-10T07:14:16.287Z,2.10
2022-08-10T07:14:38.771Z,2.30
2022-08-10T07:15:59.819Z,2.00
2022-08-10T07:16:38.706Z,2.10
2022-08-10T07:17:39.670Z,2.00
2022-08-10T07:18:38.641Z,2.20
2022-08-10T07:19:50.400Z,2.40
2022-08-10T07:20:38.590Z,2.30
2022-08-10T07:21:38.564Z,2.30
2022-08-10T07:23:01.204Z,2.10
2022-08-10T07:23:57.603Z,2.00
2022-08-10T07:24:38.450Z,2.10
2022-08-10T07:25:38.417Z,2.40
2022-08-10T07:26:38.400Z,2.30
2022-08-10T07:27:39.249Z,2.60
2022-08-10T07:28:38.327Z,2.40
2022-08-10T07:29:53.211Z,2.10
2022-08-10T07:30:38.265Z,2.00
2022-08-10T07:31:57.071Z,2.10
2022-08-10T07:32:38.213Z,2.30
2022-08-10T07:33:38.170Z,2.20
2022-08-10T07:34:38.141Z,2.30
2022-08-10T07:35:42.236Z,2.10
2022-08-10T07:36:38.078Z,2.40
2022-08-10T07:37:38.044Z,2.40
2022-08-10T07:38:38.027Z,2.20
2022-08-10T07:40:02.429Z,2.10
2022-08-10T07:40:37.999Z,2.30
2022-08-10T07:41:37.921Z,2.30
2022-08-10T07:42:42.088Z,2.30
2022-08-10T07:43:37.884Z,2.00
2022-08-10T07:44:37.833Z,2.20
2022-08-10T07:45:37.802Z,2.10
2022-08-10T07:46:37.771Z,2.20
2022-08-10T07:47:46.356Z,2.20
2022-08-10T07:48:37.725Z,2.50
2022-08-10T07:49:37.677Z,2.30
2022-08-10T07:50:37.655Z,2.10
2022-08-10T07:51:37.619Z,2.40
2022-08-10T07:52:37.777Z,2.20
2022-08-10T07:53:37.561Z,2.40
2022-08-10T07:54:37.544Z,2.40
2022-08-10T07:56:04.548Z,2.30
2022-08-10T07:56:48.879Z,2.30
2022-08-10T07:57:40.244Z,2.20
2022-08-10T07:58:37.413Z,2.30
2022-08-10T07:59:37.391Z,2.40
2022-08-10T08:00:37.366Z,2.10
2022-08-10T08:01:37.389Z,2.50
2022-08-10T08:02:37.379Z,2.30
2022-08-10T08:03:37.261Z,2.30
2022-08-10T08:04:37.252Z,2.30
2022-08-10T08:06:02.947Z,2.20
2022-08-10T08:06:37.180Z,2.50
2022-08-10T08:07:37.154Z,2.20
2022-08-10T08:08:37.116Z,2.50
2022-08-10T08:09:37.102Z,2.30
2022-08-10T08:10:37.056Z,2.40
2022-08-10T08:11:37.028Z,2.30
2022-08-10T08:12:37.327Z,2.60
2022-08-10T08:13:36.981Z,2.10
2022-08-10T08:14:36.939Z,2.50
2022-08-10T08:16:18.596Z,2.50
2022-08-10T08:16:36.887Z,2.30
2022-08-10T08:17:36.854Z,2.30
2022-08-10T08:18:37.193Z,2.40
2022-08-10T08:19:40.949Z,2.30
2022-08-10T08:20:36.765Z,2.20
2022-08-10T08:24:04.585Z,2.30
2022-08-10T08:24:04.729Z,2.30
2022-08-10T08:24:07.807Z,2.30
2022-08-10T08:24:37.165Z,2.20
2022-08-10T08:25:36.620Z,2.40
2022-08-10T08:26:36.596Z,2.10
2022-08-10T08:27:38.340Z,2.30
2022-08-10T08:28:36.618Z,2.30
2022-08-10T08:29:37.345Z,2.00
2022-08-10T08:30:36.504Z,2.30
2022-08-10T08:31:36.458Z,2.10
2022-08-10T08:32:36.724Z,2.50
2022-08-10T08:33:41.927Z,2.30
2022-08-10T08:34:37.631Z,2.30
2022-08-10T08:35:38.066Z,2.20
2022-08-10T08:36:37.333Z,2.20
2022-08-10T08:38:31.389Z,2.20
2022-08-10T08:38:36.792Z,2.20
2022-08-10T08:39:37.077Z,2.10
2022-08-10T08:40:36.243Z,2.20
2022-08-10T08:41:36.200Z,2.40
2022-08-10T08:42:36.302Z,2.40
2022-08-10T08:43:36.113Z,2.30
2022-08-10T08:44:36.095Z,2.50
2022-08-10T08:45:36.060Z,2.20
2022-08-10T08:46:36.040Z,2.30
2022-08-10T08:48:04.504Z,2.40
2022-08-10T08:48:35.978Z,2.20
2022-08-10T08:50:08.837Z,2.10
2022-08-10T08:50:35.922Z,2.20
2022-08-10T08:52:07.330Z,2.00
2022-08-10T08:52:36.185Z,2.00
2022-08-10T08:54:01.206Z,2.10
2022-08-10T08:54:35.852Z,2.40
2022-08-10T08:56:03.497Z,2.10
2022-08-10T08:56:35.802Z,2.20
2022-08-10T08:57:50.464Z,2.20
2022-08-10T08:58:35.798Z,2.30
2022-08-10T08:59:35.690Z,2.30
2022-08-10T09:00:35.651Z,2.10
2022-08-10T09:01:38.050Z,2.10
2022-08-10T09:02:35.780Z,2.50
2022-08-10T09:03:35.569Z,2.30
2022-08-10T09:04:35.543Z,2.20
2022-08-10T09:06:00.214Z,2.20
2022-08-10T09:06:35.497Z,2.20
2022-08-10T09:07:59.582Z,2.10
2022-08-10T09:08:35.436Z,2.30
2022-08-10T09:09:35.405Z,2.40
2022-08-10T09:10:37.570Z,2.40
2022-08-10T09:11:35.362Z,2.20
2022-08-10T09:12:35.610Z,2.30
2022-08-10T09:13:35.301Z,2.20
2022-08-10T09:14:35.278Z,2.20
2022-08-10T09:15:39.981Z,2.10
2022-08-10T09:16:35.239Z,2.20
2022-08-10T09:17:35.197Z,2.10
2022-08-10T09:18:35.173Z,2.00
2022-08-10T09:19:36.877Z,2.10
2022-08-10T09:20:35.121Z,2.20
2022-08-10T09:21:35.095Z,2.10
2022-08-10T09:22:35.184Z,2.10
2022-08-10T09:24:01.665Z,2.00
2022-08-10T09:24:35.017Z,2.30
2022-08-10T09:25:34.988Z,2.40
2022-08-10T09:26:34.965Z,2.40
2022-08-10T09:27:35.438Z,2.30
2022-08-10T09:28:34.921Z,2.30
2022-08-10T09:29:34.885Z,2.30
2022-08-10T09:30:38.448Z,2.20
2022-08-10T09:31:38.648Z,2.20
2022-08-10T09:36:14.870Z,2.00
2022-08-10T09:36:19.794Z,2.10
2022-08-10T09:36:25.994Z,2.20
2022-08-10T09:36:29.225Z,2.30
2022-08-10T09:36:35.422Z,2.40
2022-08-10T09:37:39.990Z,1.90
2022-08-10T09:38:34.652Z,2.00
2022-08-10T09:40:12.685Z,2.10
2022-08-10T09:41:00.074Z,2.20
2022-08-10T09:41:34.612Z,2.10
2022-08-10T09:42:34.748Z,2.20
2022-08-10T09:43:34.523Z,2.20
2022-08-10T09:44:34.496Z,2.00
2022-08-10T09:45:34.484Z,2.10
2022-08-10T09:46:34.450Z,2.10
2022-08-10T09:47:58.602Z,2.30
2022-08-10T09:48:34.391Z,2.00
2022-08-10T09:49:53.760Z,2.30
2022-08-10T09:51:16.027Z,2.30
2022-08-10T09:51:45.326Z,2.30
2022-08-10T09:52:34.288Z,2.10
2022-08-10T09:53:34.489Z,2.00
2022-08-10T09:54:34.236Z,2.20
2022-08-10T09:56:18.015Z,2.30
2022-08-10T09:56:34.190Z,2.50
2022-08-10T09:57:44.906Z,2.40
2022-08-10T09:58:34.126Z,2.10
2022-08-10T10:00:00.077Z,2.30
2022-08-10T10:00:34.073Z,2.40
2022-08-10T10:02:03.177Z,2.30
2022-08-10T10:02:34.020Z,2.20
2022-08-10T10:03:34.026Z,2.20
2022-08-10T10:04:33.969Z,2.10
2022-08-10T10:05:34.062Z,2.00
2022-08-10T10:06:33.915Z,2.40
2022-08-10T10:07:33.917Z,2.10
2022-08-10T10:08:33.865Z,2.10
2022-08-10T10:09:33.837Z,2.30
2022-08-10T10:10:33.811Z,2.20
2022-08-10T10:11:33.802Z,2.20
2022-08-10T10:12:33.758Z,2.20
2022-08-10T10:14:01.791Z,2.40
2022-08-10T10:14:33.706Z,2.40
2022-08-10T10:15:33.680Z,2.40
2022-08-10T10:16:33.656Z,2.40
2022-08-10T10:17:33.630Z,2.20
2022-08-10T10:18:33.600Z,2.40
2022-08-10T10:19:36.171Z,2.10
2022-08-10T10:20:33.548Z,2.20
2022-08-10T10:21:53.948Z,2.50
2022-08-10T10:22:33.495Z,2.10
2022-08-10T10:23:33.479Z,2.10
2022-08-10T10:24:33.440Z,2.50
2022-08-10T10:25:51.245Z,2.40
2022-08-10T10:26:33.388Z,2.10
2022-08-10T10:27:33.414Z,2.20
2022-08-10T10:29:06.932Z,2.40
2022-08-10T10:29:57.264Z,2.10
2022-08-10T10:30:33.296Z,2.20
2022-08-10T10:31:33.270Z,2.40
2022-08-10T10:32:36.870Z,2.30
2022-08-10T10:33:33.205Z,2.50
2022-08-10T10:34:33.182Z,2.20
2022-08-10T10:35:33.150Z,2.40
2022-08-10T10:36:33.162Z,2.20
2022-08-10T10:38:01.276Z,2.40
2022-08-10T10:38:33.073Z,2.50
2022-08-10T10:39:33.082Z,2.30
2022-08-10T10:40:33.020Z,2.10
2022-08-10T10:41:55.843Z,2.40
2022-08-10T10:42:46.109Z,2.30
2022-08-10T10:43:32.942Z,2.20
2022-08-10T10:44:32.914Z,2.10
2022-08-10T10:45:32.888Z,2.50
2022-08-10T10:46:32.864Z,2.60
2022-08-10T10:47:32.943Z,2.40
2022-08-10T10:48:32.810Z,2.30
2022-08-10T10:49:32.784Z,2.40
2022-08-10T10:50:32.759Z,2.20
2022-08-10T10:51:32.735Z,2.50
2022-08-10T10:52:32.720Z,2.30
2022-08-10T10:53:32.685Z,2.70
2022-08-10T10:54:32.655Z,2.60
2022-08-10T10:55:32.629Z,2.50
2022-08-10T10:56:32.605Z,2.20
2022-08-10T10:57:59.026Z,2.20
2022-08-10T10:58:32.572Z,2.40
2022-08-10T10:59:55.693Z,2.30
2022-08-10T11:00:32.505Z,2.50
2022-08-10T11:01:32.521Z,2.30
2022-08-10T11:02:32.459Z,2.20
2022-08-10T11:03:32.426Z,2.30
2022-08-10T11:04:32.397Z,2.60
2022-08-10T11:05:32.369Z,2.40
2022-08-10T11:06:40.112Z,2.20
2022-08-10T11:07:33.900Z,2.50
2022-08-10T11:08:32.301Z,2.40
2022-08-10T11:10:05.077Z,2.20
2022-08-10T11:10:34.650Z,2.30
2022-08-10T11:12:01.737Z,2.30
2022-08-10T11:12:32.258Z,2.30
2022-08-10T11:14:26.769Z,2.30
2022-08-10T11:14:32.156Z,2.30
2022-08-10T11:15:32.107Z,2.50
2022-08-10T11:16:32.076Z,2.20
2022-08-10T11:17:32.054Z,2.20
2022-08-10T11:18:32.023Z,2.30
2022-08-10T11:20:01.842Z,2.20
2022-08-10T11:20:31.981Z,2.60
2022-08-10T11:21:31.942Z,2.20
2022-08-10T11:22:36.750Z,2.40
2022-08-10T11:23:31.890Z,2.20
2022-08-10T11:24:47.665Z,2.50
2022-08-10T11:25:31.845Z,2.30
2022-08-10T11:26:31.817Z,2.30
2022-08-10T11:27:31.907Z,2.30
2022-08-10T11:28:34.116Z,2.40
2022-08-10T11:29:31.729Z,2.40
2022-08-10T11:30:31.716Z,2.50
2022-08-10T11:31:31.675Z,2.60
2022-08-10T11:32:31.646Z,2.40
2022-08-10T11:33:32.907Z,2.40
2022-08-10T11:34:48.422Z,2.30
2022-08-10T11:35:34.826Z,2.30
2022-08-10T11:36:31.551Z,2.40
2022-08-10T11:38:34.264Z,2.20
2022-08-10T11:38:42.877Z,2.10
2022-08-10T11:39:31.512Z,2.30
2022-08-10T11:40:31.430Z,2.30
2022-08-10T11:42:09.551Z,2.10
2022-08-10T11:42:35.778Z,2.20
2022-08-10T11:43:31.355Z,2.30
2022-08-10T11:44:31.323Z,2.40
2022-08-10T11:45:31.298Z,2.20
2022-08-10T11:46:31.270Z,2.30
2022-08-10T11:47:31.258Z,2.30
2022-08-10T11:48:53.356Z,2.20
2022-08-10T11:49:31.193Z,2.10
2022-08-10T11:50:31.165Z,2.40
2022-08-10T11:51:31.141Z,2.60
2022-08-10T11:52:31.110Z,2.40
2022-08-10T11:53:39.115Z,2.40
2022-08-10T11:54:31.079Z,2.60
2022-08-10T11:55:31.032Z,2.20
2022-08-10T11:56:31.046Z,2.30
2022-08-10T11:57:53.788Z,2.40
2022-08-10T11:58:30.951Z,2.40
2022-08-10T11:59:30.946Z,2.60
2022-08-10T12:00:32.693Z,2.50
2022-08-10T12:01:30.874Z,2.50
2022-08-10T12:02:30.929Z,2.70
2022-08-10T12:03:34.565Z,2.40
2022-08-10T12:04:30.794Z,2.40
2022-08-10T12:05:51.936Z,2.50
2022-08-10T12:06:54.253Z,2.40
2022-08-10T12:10:05.835Z,2.60
2022-08-10T12:10:06.685Z,2.30
2022-08-10T12:10:09.981Z,2.40
2022-08-10T12:10:30.651Z,2.40
2022-08-10T12:11:30.613Z,2.40
2022-08-10T12:12:30.586Z,2.30
2022-08-10T12:13:30.561Z,2.40
2022-08-10T12:14:30.548Z,2.50
2022-08-10T12:15:30.521Z,2.50
2022-08-10T12:16:30.538Z,2.70
2022-08-10T12:17:30.457Z,2.60
2022-08-10T12:18:30.429Z,2.30
2022-08-10T12:19:30.404Z,2.40
2022-08-10T12:20:30.378Z,2.40
2022-08-10T12:21:30.363Z,2.10
2022-08-10T12:22:30.331Z,2.40
2022-08-10T12:23:30.353Z,2.40
2022-08-10T12:24:30.271Z,2.20
2022-08-10T12:25:56.110Z,2.20
2022-08-10T12:26:30.217Z,2.40
2022-08-10T12:27:30.194Z,2.20
2022-08-10T12:28:50.671Z,2.30
2022-08-10T12:29:30.145Z,2.70
2022-08-10T12:30:30.128Z,2.50
2022-08-10T12:31:30.088Z,2.70
2022-08-10T12:32:30.061Z,2.50
2022-08-10T12:33:30.059Z,2.10
2022-08-10T12:34:30.009Z,2.20
2022-08-10T12:35:29.984Z,2.20
2022-08-10T12:36:29.972Z,2.40
2022-08-10T12:37:29.932Z,2.30
2022-08-10T12:38:29.905Z,2.50
2022-08-10T12:39:29.969Z,2.40
2022-08-10T12:40:35.728Z,2.20
2022-08-10T12:41:43.504Z,2.20
2022-08-10T12:43:13.083Z,2.20
2022-08-10T12:44:04.324Z,2.40
2022-08-10T12:44:40.974Z,2.30
2022-08-10T12:45:29.724Z,2.30
2022-08-10T12:46:29.701Z,2.60
2022-08-10T12:47:29.676Z,2.40
2022-08-10T12:48:31.468Z,2.10
2022-08-10T12:49:29.628Z,2.60
2022-08-10T12:50:33.758Z,2.50
2022-08-10T12:51:29.571Z,2.60
2022-08-10T12:52:29.548Z,2.60
2022-08-10T12:53:29.592Z,2.30
2022-08-10T12:54:32.743Z,2.50
2022-08-10T12:55:29.469Z,2.30
2022-08-10T12:56:29.457Z,2.30
2022-08-10T12:57:29.418Z,2.40
2022-08-10T12:59:00.397Z,2.40
2022-08-10T12:59:29.365Z,2.50
2022-08-10T13:00:29.351Z,2.60
2022-08-10T13:02:06.964Z,2.30
2022-08-10T13:02:29.376Z,2.40
2022-08-10T13:04:20.630Z,2.40
2022-08-10T13:04:29.241Z,2.30
2022-08-10T13:05:29.213Z,2.20
2022-08-10T13:06:29.196Z,2.40
2022-08-10T13:08:24.551Z,2.50
2022-08-10T13:08:29.134Z,2.50
2022-08-10T13:09:29.109Z,2.50
2022-08-10T13:10:29.082Z,2.40
2022-08-10T13:12:39.073Z,2.30
2022-08-10T13:12:39.203Z,2.10
2022-08-10T13:13:29.005Z,2.30
2022-08-10T13:14:28.978Z,2.30
2022-08-10T13:15:48.511Z,2.50
2022-08-10T13:16:31.094Z,2.50
2022-08-10T13:17:32.343Z,2.20
2022-08-10T13:18:28.887Z,2.30